Current Weather

South Bend St Joseph Co Arpt

South Bend St Joseph Co Arpt, Indiana (KSBN)

Report from: Thursday, May 19, 2022 1:54 PM EDT
Current time: Thursday, May 19, 2022 2:16 PM EDT

Nearby weather
Weather history
Weather forecast

Temperature23.9°C (75.0°F)
Dew point16.7°C (62.1°F)
Winds 13 kts (6.7 m/s, 15 mph) South-Southwest (210°)
Wind gusts 18 kts (9.3 m/s, 20.7 mph)
Visibility10 mi. (16.1 km)
Clouds Sky clear
Altimeter29.68 in.Hg (1005 mB)
Relative humidity64 %
Density altitude1,570 ft. (478 m)
Sea-level pressure100.5 kPa (1005 mB, 29.67 in.Hg)
Max temp last 6 hours23.9°C (75.0°F)
Min temp last 6 hours12.8°C (55.0°F)
Remarks Automated weather observing station with precipitation discriminator
Pressure falling more quickly
Flight conditions Visual Meteorological Conditions
Raw dataKSBN 191754Z 21013G18KT 10SM CLR 24/17 A2968 RMK AO2 SLP048 T02390167 10239 20128 58016
An error has occurred. This application may no longer respond until reloaded. Reload 🗙